createdAt,value
2018-08-31T00:03:06.649Z,3.10
2018-08-31T00:05:57.166Z,3.37
2018-08-31T00:08:05.701Z,3.50
2018-08-31T00:09:52.467Z,3.37
2018-08-31T00:11:41.653Z,3.50
2018-08-31T00:13:17.242Z,3.40
2018-08-31T00:14:52.970Z,3.63
2018-08-31T00:16:28.400Z,3.33
2018-08-31T00:18:03.868Z,3.40
2018-08-31T00:19:39.280Z,3.87
2018-08-31T00:21:14.788Z,3.13
2018-08-31T00:22:50.176Z,2.93
2018-08-31T00:24:36.860Z,2.70
2018-08-31T00:26:24.771Z,3.00
2018-08-31T00:28:11.786Z,2.97
2018-08-31T00:29:58.417Z,2.93
2018-08-31T00:33:47.792Z,2.80
2018-08-31T00:35:36.601Z,3.07
2018-08-31T00:41:30.710Z,3.33
2018-08-31T00:43:16.957Z,3.33
2018-08-31T00:45:02.113Z,2.93
2018-08-31T00:46:37.718Z,2.97
2018-08-31T00:48:13.123Z,3.00
2018-08-31T00:49:48.668Z,3.00
2018-08-31T00:51:24.469Z,3.00
2018-08-31T00:53:00.261Z,2.70
2018-08-31T00:54:35.943Z,3.27
2018-08-31T00:56:11.428Z,3.03
2018-08-31T00:57:47.411Z,3.00
2018-08-31T00:59:22.853Z,3.23
2018-08-31T01:00:58.362Z,3.23
2018-08-31T01:02:33.973Z,3.23
2018-08-31T01:04:09.506Z,3.17
2018-08-31T01:05:44.928Z,3.30
2018-08-31T01:07:20.372Z,3.40
2018-08-31T01:08:55.822Z,3.20
2018-08-31T01:10:31.276Z,3.37
2018-08-31T01:12:06.735Z,3.50
2018-08-31T01:13:42.238Z,3.70
2018-08-31T01:15:17.670Z,3.03
2018-08-31T01:16:53.115Z,3.33
2018-08-31T01:18:28.573Z,3.10
2018-08-31T01:20:04.018Z,3.00
2018-08-31T01:21:39.644Z,2.80
2018-08-31T01:23:15.097Z,2.90
2018-08-31T01:24:50.982Z,3.70
2018-08-31T01:26:27.377Z,2.83
2018-08-31T01:28:03.154Z,3.50
2018-08-31T01:29:38.534Z,3.00
2018-08-31T01:31:14.107Z,3.27
2018-08-31T01:32:49.590Z,3.30
2018-08-31T01:34:25.660Z,3.20
2018-08-31T01:36:02.064Z,3.10
2018-08-31T01:37:37.526Z,2.70
2018-08-31T01:39:13.090Z,2.70
2018-08-31T01:40:48.576Z,2.90
2018-08-31T01:42:23.993Z,2.90
2018-08-31T01:43:59.661Z,3.40
2018-08-31T01:45:35.706Z,2.87
2018-08-31T01:47:12.084Z,3.50
2018-08-31T01:48:47.807Z,3.23
2018-08-31T01:50:23.193Z,3.13
2018-08-31T01:51:58.622Z,3.23
2018-08-31T01:53:34.107Z,3.10
2018-08-31T01:55:09.558Z,3.53
2018-08-31T01:56:45.847Z,3.77
2018-08-31T01:58:21.590Z,3.70
2018-08-31T01:59:57.041Z,3.83
2018-08-31T02:01:32.527Z,3.83
2018-08-31T02:03:08.573Z,3.63
2018-08-31T02:04:44.009Z,3.57
2018-08-31T02:06:19.472Z,4.03
2018-08-31T02:07:55.457Z,3.77
2018-08-31T02:09:31.439Z,3.40
2018-08-31T02:11:07.682Z,3.70
2018-08-31T02:12:43.175Z,3.60
2018-08-31T02:14:18.627Z,4.20
2018-08-31T02:15:54.031Z,3.60
2018-08-31T02:17:30.078Z,3.83
2018-08-31T02:19:05.515Z,3.67
2018-08-31T02:20:40.956Z,3.97
2018-08-31T02:22:16.336Z,3.80
2018-08-31T02:23:51.825Z,4.27
2018-08-31T02:25:27.215Z,3.83
2018-08-31T02:27:02.669Z,3.60
2018-08-31T02:28:39.616Z,3.50
2018-08-31T02:30:15.044Z,4.53
2018-08-31T02:31:50.455Z,4.17
2018-08-31T02:33:25.906Z,4.57
2018-08-31T02:35:01.366Z,4.00
2018-08-31T02:36:36.775Z,3.57
2018-08-31T02:38:12.243Z,4.03
2018-08-31T02:39:47.697Z,4.07
2018-08-31T02:41:23.424Z,4.17
2018-08-31T02:42:58.923Z,4.07
2018-08-31T02:44:34.331Z,3.90
2018-08-31T02:46:09.875Z,3.70
2018-08-31T02:47:45.812Z,3.70
2018-08-31T02:49:21.258Z,3.77
2018-08-31T02:50:56.818Z,3.97
2018-08-31T02:52:32.442Z,3.97
2018-08-31T02:54:07.907Z,3.67
2018-08-31T02:55:43.595Z,3.90
2018-08-31T02:57:20.435Z,4.40
2018-08-31T02:58:56.695Z,4.00
2018-08-31T03:00:32.108Z,3.87
2018-08-31T03:02:08.579Z,4.07
2018-08-31T03:03:44.297Z,3.33
2018-08-31T03:05:19.891Z,4.33
2018-08-31T03:06:55.347Z,4.30
2018-08-31T03:08:30.841Z,3.77
2018-08-31T03:10:06.387Z,3.60
2018-08-31T03:11:42.026Z,3.50
2018-08-31T03:13:17.648Z,3.50
2018-08-31T03:14:53.059Z,3.67
2018-08-31T03:16:28.538Z,3.67
2018-08-31T03:18:04.022Z,4.03
2018-08-31T03:19:39.410Z,4.03
2018-08-31T03:21:15.759Z,3.93
2018-08-31T03:22:51.291Z,3.97
2018-08-31T03:24:26.747Z,3.50
2018-08-31T03:26:02.170Z,3.47
2018-08-31T03:27:38.233Z,3.50
2018-08-31T03:29:13.700Z,3.60
2018-08-31T03:30:49.506Z,3.87
2018-08-31T03:32:26.065Z,3.80
2018-08-31T03:34:01.445Z,4.20
2018-08-31T03:35:37.159Z,4.53
2018-08-31T03:37:12.582Z,4.03
2018-08-31T03:38:48.036Z,3.97
2018-08-31T03:40:23.496Z,3.87
2018-08-31T03:41:59.780Z,3.80
2018-08-31T03:43:35.249Z,3.77
2018-08-31T03:45:10.764Z,3.53
2018-08-31T03:46:46.481Z,3.90
2018-08-31T03:48:21.984Z,3.57
2018-08-31T03:49:57.482Z,3.73
2018-08-31T03:51:32.972Z,4.50
2018-08-31T03:53:08.431Z,3.67
2018-08-31T03:54:43.917Z,3.97
2018-08-31T03:56:19.341Z,4.00
2018-08-31T03:57:55.036Z,3.97
2018-08-31T03:59:30.564Z,3.87
2018-08-31T04:01:06.619Z,3.37
2018-08-31T04:02:42.072Z,3.77
2018-08-31T04:04:17.510Z,4.10
2018-08-31T04:05:55.102Z,3.30
2018-08-31T04:07:31.405Z,4.00
2018-08-31T04:09:07.996Z,3.80
2018-08-31T04:10:43.968Z,3.40
2018-08-31T04:12:20.022Z,3.50
2018-08-31T04:13:55.441Z,4.00
2018-08-31T04:15:33.210Z,3.70
2018-08-31T04:17:08.954Z,4.07
2018-08-31T04:18:44.973Z,3.53
2018-08-31T04:20:20.411Z,3.73
2018-08-31T04:21:56.111Z,4.17
2018-08-31T04:23:31.675Z,3.70
2018-08-31T04:25:08.181Z,4.10
2018-08-31T04:26:44.632Z,3.90
2018-08-31T04:28:20.112Z,4.00
2018-08-31T04:29:56.754Z,4.30
2018-08-31T04:31:32.223Z,3.97
2018-08-31T04:33:07.749Z,3.87
2018-08-31T04:34:43.218Z,4.13
2018-08-31T04:36:18.695Z,4.07
2018-08-31T04:37:55.078Z,3.90
2018-08-31T04:39:31.284Z,3.57
2018-08-31T04:41:06.876Z,4.43
2018-08-31T04:42:43.374Z,3.60
2018-08-31T04:44:18.890Z,3.93
2018-08-31T04:45:54.356Z,4.20
2018-08-31T04:47:29.910Z,3.70
2018-08-31T04:49:05.992Z,4.00
2018-08-31T04:50:41.506Z,4.57
2018-08-31T04:52:16.974Z,4.33
2018-08-31T04:53:52.983Z,4.10
2018-08-31T04:55:28.480Z,4.13
2018-08-31T04:57:03.979Z,4.20
2018-08-31T04:58:39.420Z,3.57
2018-08-31T05:00:14.914Z,3.90
2018-08-31T05:01:52.387Z,3.80
2018-08-31T05:03:27.842Z,4.10
2018-08-31T05:05:04.019Z,4.03
2018-08-31T05:06:39.488Z,4.80
2018-08-31T05:08:15.136Z,4.10
2018-08-31T05:09:50.590Z,4.53
2018-08-31T05:11:26.133Z,4.10
2018-08-31T05:13:02.044Z,4.03
2018-08-31T05:14:37.482Z,4.47
2018-08-31T05:16:13.789Z,3.87
2018-08-31T05:17:49.309Z,4.33
2018-08-31T05:19:25.822Z,4.93
2018-08-31T05:21:03.666Z,4.50
2018-08-31T05:22:39.906Z,4.43
2018-08-31T05:24:16.530Z,5.03
2018-08-31T05:25:51.993Z,4.53
2018-08-31T05:27:27.531Z,4.33
2018-08-31T05:29:03.570Z,4.30
2018-08-31T05:30:39.117Z,4.63
2018-08-31T05:32:14.918Z,4.20
2018-08-31T05:33:50.694Z,4.23
2018-08-31T05:35:26.890Z,4.37
2018-08-31T05:37:03.201Z,4.43
2018-08-31T05:38:38.668Z,4.30
2018-08-31T05:40:14.133Z,4.30
2018-08-31T05:41:49.539Z,4.47
2018-08-31T05:43:25.482Z,4.77
2018-08-31T05:45:01.311Z,4.17
2018-08-31T05:46:36.804Z,4.40
2018-08-31T05:48:12.814Z,4.97
2018-08-31T05:49:49.372Z,5.03
2018-08-31T05:51:25.301Z,5.20
2018-08-31T05:53:00.789Z,5.13
2018-08-31T05:54:38.921Z,5.57
2018-08-31T05:56:14.387Z,5.10
2018-08-31T05:57:49.841Z,4.97
2018-08-31T05:59:25.462Z,5.57
2018-08-31T06:01:00.911Z,4.83
2018-08-31T06:02:37.232Z,4.67
2018-08-31T06:04:13.613Z,4.90
2018-08-31T06:05:52.720Z,4.97
2018-08-31T06:07:29.257Z,5.37
2018-08-31T06:09:06.492Z,4.37
2018-08-31T06:10:41.968Z,4.77
2018-08-31T06:12:17.401Z,5.27
2018-08-31T06:13:52.825Z,5.13
2018-08-31T06:15:28.314Z,5.53
2018-08-31T06:17:04.608Z,4.97
2018-08-31T06:18:40.045Z,5.10
2018-08-31T06:20:16.525Z,5.30
2018-08-31T06:21:52.503Z,5.20
2018-08-31T06:23:29.060Z,4.80
2018-08-31T06:25:05.962Z,4.80
2018-08-31T06:26:41.394Z,5.07
2018-08-31T06:28:16.871Z,5.57
2018-08-31T06:29:53.373Z,4.87
2018-08-31T06:31:29.244Z,5.83
2018-08-31T06:33:04.752Z,5.47
2018-08-31T06:34:40.183Z,4.73
2018-08-31T06:36:16.506Z,4.97
2018-08-31T06:37:55.004Z,5.00
2018-08-31T06:39:31.543Z,5.13
2018-08-31T06:41:10.339Z,4.53
2018-08-31T06:42:45.799Z,4.37
2018-08-31T06:44:21.446Z,4.20
2018-08-31T06:45:57.608Z,4.40
2018-08-31T06:47:33.770Z,4.50
2018-08-31T06:49:09.297Z,4.50
2018-08-31T06:50:45.275Z,4.70
2018-08-31T06:52:22.098Z,4.90
2018-08-31T06:53:58.121Z,5.27
2018-08-31T06:55:35.042Z,4.70
2018-08-31T06:57:11.932Z,5.10
2018-08-31T06:58:47.454Z,4.47
2018-08-31T07:00:22.911Z,4.87
2018-08-31T07:01:58.347Z,5.07
2018-08-31T07:03:36.307Z,4.20
2018-08-31T07:05:12.152Z,5.00
2018-08-31T07:06:48.401Z,4.60
2018-08-31T07:08:23.823Z,5.00
2018-08-31T07:09:59.574Z,5.13
2018-08-31T07:11:35.013Z,3.90
2018-08-31T07:13:10.443Z,4.67
2018-08-31T07:14:48.604Z,5.10
2018-08-31T07:16:24.057Z,4.60
2018-08-31T07:17:59.495Z,4.90
2018-08-31T07:19:35.548Z,4.57
2018-08-31T07:21:10.994Z,4.37
2018-08-31T07:22:46.421Z,3.90
2018-08-31T07:24:21.843Z,3.97
2018-08-31T07:25:58.127Z,4.07
2018-08-31T07:27:34.168Z,4.40
2018-08-31T07:29:09.686Z,4.10
2018-08-31T07:30:45.647Z,4.13
2018-08-31T07:32:22.336Z,3.63
2018-08-31T07:33:58.180Z,4.00
2018-08-31T07:35:34.183Z,3.70
2018-08-31T07:37:10.148Z,3.60
2018-08-31T07:38:48.167Z,3.53
2018-08-31T07:40:25.076Z,3.57
2018-08-31T07:42:01.013Z,3.47
2018-08-31T07:43:37.364Z,4.40
2018-08-31T07:45:13.456Z,3.57
2018-08-31T07:46:48.890Z,3.83
2018-08-31T07:48:25.319Z,3.77
2018-08-31T07:50:00.874Z,4.00
2018-08-31T07:51:36.406Z,3.77
2018-08-31T07:53:11.922Z,3.73
2018-08-31T07:54:47.363Z,3.87
2018-08-31T07:56:22.942Z,3.60
2018-08-31T07:58:00.145Z,3.33
2018-08-31T07:59:36.506Z,3.50
2018-08-31T08:01:12.014Z,2.50
2018-08-31T08:02:47.479Z,2.40
2018-08-31T08:04:23.037Z,2.80
2018-08-31T08:05:58.569Z,2.57
2018-08-31T08:07:34.223Z,2.50
2018-08-31T08:09:10.122Z,2.47
2018-08-31T08:10:46.213Z,2.67
2018-08-31T08:12:21.633Z,2.17
2018-08-31T08:13:57.387Z,2.20
2018-08-31T08:15:34.829Z,2.37
2018-08-31T08:17:10.778Z,2.10
2018-08-31T08:18:46.430Z,1.80
2018-08-31T08:20:22.216Z,1.90
2018-08-31T08:21:59.586Z,2.30
2018-08-31T08:23:35.059Z,2.60
2018-08-31T08:25:10.907Z,1.90
2018-08-31T08:26:46.403Z,2.30
2018-08-31T08:28:22.969Z,2.20
2018-08-31T08:29:58.361Z,2.07
2018-08-31T08:31:33.867Z,2.00
2018-08-31T08:33:09.387Z,1.80
2018-08-31T08:34:46.380Z,1.97
2018-08-31T08:36:22.156Z,2.13
2018-08-31T08:37:57.559Z,1.80
2018-08-31T08:39:33.983Z,2.03
2018-08-31T08:41:09.450Z,2.00
2018-08-31T08:42:47.205Z,2.00
2018-08-31T08:44:24.019Z,2.00
2018-08-31T08:46:01.466Z,1.90
2018-08-31T08:47:37.571Z,1.90
2018-08-31T08:49:13.021Z,2.20
2018-08-31T08:50:49.272Z,1.93
2018-08-31T08:52:25.993Z,1.70
2018-08-31T08:54:01.400Z,1.60
2018-08-31T08:55:36.877Z,1.40
2018-08-31T08:57:14.987Z,1.77
2018-08-31T08:58:50.400Z,1.73
2018-08-31T09:00:28.809Z,2.20
2018-08-31T09:02:04.996Z,1.70
2018-08-31T09:03:44.007Z,2.00
2018-08-31T09:05:19.877Z,1.80
2018-08-31T09:06:55.289Z,1.83
2018-08-31T09:08:31.421Z,1.90
2018-08-31T09:10:08.020Z,1.90
2018-08-31T09:11:43.595Z,2.17
2018-08-31T09:13:19.727Z,2.00
2018-08-31T09:14:55.149Z,1.57
2018-08-31T09:16:31.106Z,1.90
2018-08-31T09:18:06.563Z,2.50
2018-08-31T09:19:41.993Z,1.87
2018-08-31T09:21:17.422Z,1.90
2018-08-31T09:22:53.118Z,1.40
2018-08-31T09:24:31.869Z,1.90
2018-08-31T09:26:11.704Z,2.37
2018-08-31T09:27:52.918Z,1.70
2018-08-31T09:29:28.591Z,1.63
2018-08-31T09:31:09.782Z,1.63
2018-08-31T09:32:45.384Z,1.50
2018-08-31T09:34:21.108Z,1.53
2018-08-31T09:35:56.920Z,1.77
2018-08-31T09:37:32.433Z,1.60
2018-08-31T09:39:08.728Z,1.13
2018-08-31T09:40:44.225Z,1.50
2018-08-31T09:42:20.070Z,1.60
2018-08-31T09:43:58.116Z,1.40
2018-08-31T09:45:33.823Z,1.70
2018-08-31T09:47:11.302Z,1.30
2018-08-31T09:48:47.161Z,1.50
2018-08-31T09:50:22.610Z,1.43
2018-08-31T09:51:59.558Z,1.50
2018-08-31T09:53:36.515Z,1.67
2018-08-31T09:55:13.832Z,1.50
2018-08-31T09:56:51.384Z,1.27
2018-08-31T09:58:27.764Z,1.67
2018-08-31T10:00:03.232Z,1.67
2018-08-31T10:01:39.548Z,2.17
2018-08-31T10:03:20.505Z,1.63
2018-08-31T10:04:57.907Z,1.40
2018-08-31T10:06:35.544Z,1.50
2018-08-31T10:08:11.778Z,1.80
2018-08-31T10:09:47.259Z,1.47
2018-08-31T10:11:22.710Z,1.67
2018-08-31T10:12:59.084Z,1.40
2018-08-31T10:14:35.385Z,1.70
2018-08-31T10:16:11.082Z,1.63
2018-08-31T10:17:46.530Z,1.80
2018-08-31T10:19:22.234Z,1.67
2018-08-31T10:20:58.723Z,2.30
2018-08-31T10:22:34.229Z,1.80
2018-08-31T10:24:11.785Z,1.67
2018-08-31T10:25:48.008Z,1.60
2018-08-31T10:27:23.473Z,2.17
2018-08-31T10:28:59.436Z,1.80
2018-08-31T10:30:37.187Z,1.70
2018-08-31T10:32:12.596Z,1.73
2018-08-31T10:33:48.055Z,2.07
2018-08-31T10:35:23.790Z,1.70
2018-08-31T10:37:00.300Z,1.70
2018-08-31T10:38:36.930Z,1.60
2018-08-31T10:40:12.684Z,1.67
2018-08-31T10:41:49.691Z,1.57
2018-08-31T10:43:26.110Z,1.40
2018-08-31T10:45:02.587Z,1.47
2018-08-31T10:46:40.108Z,2.53
2018-08-31T10:48:17.131Z,2.10
2018-08-31T10:49:53.667Z,1.80
2018-08-31T10:51:30.341Z,1.73
2018-08-31T10:53:08.791Z,1.80
2018-08-31T10:54:44.812Z,2.10
2018-08-31T10:56:22.098Z,1.87
2018-08-31T10:57:58.531Z,1.83
2018-08-31T10:59:36.672Z,1.60
2018-08-31T11:01:12.202Z,1.97
2018-08-31T11:02:48.651Z,1.50
2018-08-31T11:04:27.435Z,1.77
2018-08-31T11:06:03.581Z,1.20
2018-08-31T11:07:39.476Z,1.67
2018-08-31T11:09:16.029Z,1.60
2018-08-31T11:10:51.454Z,1.90
2018-08-31T11:12:27.193Z,1.60
2018-08-31T11:14:03.577Z,1.60
2018-08-31T11:15:40.342Z,1.40
2018-08-31T11:17:15.790Z,2.00
2018-08-31T11:18:51.311Z,1.80
2018-08-31T11:20:26.760Z,1.93
2018-08-31T11:22:02.603Z,2.10
2018-08-31T11:23:38.387Z,2.03
2018-08-31T11:25:14.323Z,2.00
2018-08-31T11:26:49.759Z,1.40
2018-08-31T11:28:26.612Z,2.17
2018-08-31T11:30:02.047Z,1.60
2018-08-31T11:31:38.422Z,2.07
2018-08-31T11:33:14.942Z,1.87
2018-08-31T11:34:50.681Z,1.53
2018-08-31T11:36:27.523Z,1.90
2018-08-31T11:38:02.943Z,1.80
2018-08-31T11:39:39.475Z,1.90
2018-08-31T11:41:16.546Z,1.67
2018-08-31T11:42:52.865Z,1.70
2018-08-31T11:44:28.314Z,1.80
2018-08-31T11:46:04.385Z,1.70
2018-08-31T11:47:40.348Z,1.77
2018-08-31T11:49:17.816Z,1.77
2018-08-31T11:50:54.299Z,1.93
2018-08-31T11:52:31.050Z,1.43
2018-08-31T11:54:08.240Z,1.90
2018-08-31T11:55:44.020Z,1.60
2018-08-31T11:57:19.552Z,1.70
2018-08-31T11:58:55.070Z,1.47
2018-08-31T12:00:31.480Z,1.70
2018-08-31T12:02:07.408Z,1.70
2018-08-31T12:03:42.824Z,1.90
2018-08-31T12:05:19.258Z,1.93
2018-08-31T12:06:55.659Z,1.87
2018-08-31T12:08:32.627Z,2.17
2018-08-31T12:10:09.411Z,2.30
2018-08-31T12:11:44.915Z,2.00
2018-08-31T12:13:20.377Z,1.77
2018-08-31T12:14:55.825Z,1.60
2018-08-31T12:16:32.888Z,1.60
2018-08-31T12:18:14.583Z,1.60
2018-08-31T12:19:56.723Z,1.50
2018-08-31T12:21:33.888Z,2.10
2018-08-31T12:23:14.703Z,2.20
2018-08-31T12:24:50.149Z,1.53
2018-08-31T12:26:27.878Z,1.93
2018-08-31T12:28:06.677Z,2.00
2018-08-31T12:29:42.375Z,1.60
2018-08-31T12:31:17.932Z,1.50
2018-08-31T12:32:53.414Z,1.90
2018-08-31T12:34:28.925Z,1.40
2018-08-31T12:36:05.033Z,1.67
2018-08-31T12:37:40.545Z,1.47
2018-08-31T12:39:16.997Z,1.60
2018-08-31T12:40:56.436Z,1.67
2018-08-31T12:42:33.192Z,1.90
2018-08-31T12:44:08.730Z,1.90
2018-08-31T12:45:44.465Z,2.10
2018-08-31T12:47:20.623Z,2.00
2018-08-31T12:48:56.617Z,1.90
2018-08-31T12:50:32.335Z,2.30
2018-08-31T12:52:07.774Z,2.23
2018-08-31T12:53:43.344Z,2.13
2018-08-31T12:55:18.788Z,2.00
2018-08-31T12:56:54.850Z,1.80
2018-08-31T12:58:30.630Z,1.83
2018-08-31T13:00:06.775Z,2.03
2018-08-31T13:01:43.097Z,1.97
2018-08-31T13:03:18.677Z,1.73
2018-08-31T13:04:54.125Z,2.17
2018-08-31T13:06:29.580Z,1.93
2018-08-31T13:08:05.479Z,2.10
2018-08-31T13:09:47.611Z,1.97
2018-08-31T13:11:23.165Z,2.13
2018-08-31T13:12:59.146Z,1.80
2018-08-31T13:14:34.792Z,1.67
2018-08-31T13:16:10.705Z,2.00
2018-08-31T13:17:47.463Z,1.77
2018-08-31T13:19:23.579Z,1.87
2018-08-31T13:20:59.145Z,1.87
2018-08-31T13:22:34.639Z,2.30
2018-08-31T13:24:10.087Z,1.97
2018-08-31T13:25:54.491Z,1.40
2018-08-31T13:27:30.867Z,1.50
2018-08-31T13:29:06.330Z,1.83
2018-08-31T13:30:42.610Z,1.83
2018-08-31T13:32:18.108Z,2.23
2018-08-31T13:33:53.652Z,1.97
2018-08-31T13:35:29.090Z,1.83
2018-08-31T13:37:04.553Z,2.03
2018-08-31T13:38:42.249Z,1.90
2018-08-31T13:40:17.687Z,2.13
2018-08-31T13:41:53.529Z,1.80
2018-08-31T13:43:28.973Z,2.10
2018-08-31T13:45:04.522Z,1.70
2018-08-31T13:46:40.180Z,1.90
2018-08-31T13:48:18.954Z,2.07
2018-08-31T13:49:55.039Z,1.97
2018-08-31T13:51:30.610Z,1.73
2018-08-31T13:53:06.028Z,2.00
2018-08-31T13:54:42.892Z,2.07
2018-08-31T13:56:18.464Z,2.17
2018-08-31T13:57:53.904Z,2.00
2018-08-31T13:59:29.506Z,1.60
2018-08-31T14:01:04.923Z,1.80
2018-08-31T14:02:40.454Z,1.90
2018-08-31T14:04:16.277Z,1.83
2018-08-31T14:05:52.124Z,2.23
2018-08-31T14:07:27.557Z,2.00
2018-08-31T14:09:05.387Z,2.23
2018-08-31T14:10:41.126Z,1.90
2018-08-31T14:12:16.740Z,1.90
2018-08-31T14:13:52.274Z,1.73
2018-08-31T14:15:27.784Z,1.77
2018-08-31T14:17:03.279Z,2.17
2018-08-31T14:18:38.759Z,2.00
2018-08-31T14:20:14.243Z,2.00
2018-08-31T14:21:49.718Z,1.70
2018-08-31T14:23:25.191Z,1.90
2018-08-31T14:25:00.655Z,1.73
2018-08-31T14:26:36.382Z,1.90
2018-08-31T14:28:12.987Z,1.77
2018-08-31T14:29:50.812Z,1.70
2018-08-31T14:31:27.433Z,2.27
2018-08-31T14:33:06.926Z,2.00
2018-08-31T14:34:42.686Z,2.00
2018-08-31T14:36:18.347Z,2.00
2018-08-31T14:37:54.540Z,2.00
2018-08-31T14:39:29.952Z,1.83
2018-08-31T14:41:05.474Z,1.70
2018-08-31T14:42:41.001Z,2.07
2018-08-31T14:44:16.549Z,1.90
2018-08-31T14:45:54.358Z,2.00
2018-08-31T14:47:29.868Z,1.73
2018-08-31T14:49:06.003Z,1.87
2018-08-31T14:50:41.490Z,2.00
2018-08-31T14:52:16.965Z,2.00
2018-08-31T14:53:53.514Z,2.10
2018-08-31T14:55:28.945Z,1.90
2018-08-31T14:57:04.846Z,2.17
2018-08-31T14:58:41.556Z,2.00
2018-08-31T15:00:17.208Z,2.13
2018-08-31T15:01:52.901Z,2.27
2018-08-31T15:03:28.362Z,2.00
2018-08-31T15:05:03.782Z,1.77
2018-08-31T15:06:39.689Z,2.00
2018-08-31T15:08:15.862Z,1.87
2018-08-31T15:09:52.143Z,2.20
2018-08-31T15:11:27.628Z,1.70
2018-08-31T15:13:03.639Z,1.60
2018-08-31T15:14:39.464Z,1.87
2018-08-31T15:16:15.206Z,1.73
2018-08-31T15:17:51.658Z,1.97
2018-08-31T15:19:27.766Z,1.60
2018-08-31T15:21:08.738Z,1.70
2018-08-31T15:22:44.153Z,1.77
2018-08-31T15:24:19.613Z,1.97
2018-08-31T15:25:55.656Z,1.70
2018-08-31T15:27:31.121Z,1.97
2018-08-31T15:29:06.954Z,2.10
2018-08-31T15:30:42.935Z,1.87
2018-08-31T15:32:19.262Z,2.07
2018-08-31T15:33:54.804Z,2.20
2018-08-31T15:35:30.235Z,2.17
2018-08-31T15:37:05.792Z,2.20
2018-08-31T15:38:41.786Z,2.00
2018-08-31T15:40:17.213Z,1.70
2018-08-31T15:41:54.122Z,1.73
2018-08-31T15:43:29.585Z,1.90
2018-08-31T15:45:06.984Z,2.10
2018-08-31T15:46:42.533Z,1.70
2018-08-31T15:48:18.665Z,1.97
2018-08-31T15:49:54.475Z,2.23
2018-08-31T15:51:32.093Z,1.70
2018-08-31T15:53:07.512Z,2.10
2018-08-31T15:54:43.098Z,1.90
2018-08-31T15:56:19.185Z,2.10
2018-08-31T15:57:56.258Z,1.83
2018-08-31T15:59:31.950Z,1.93
2018-08-31T16:01:09.081Z,1.80
2018-08-31T16:02:45.285Z,1.90
2018-08-31T16:04:20.851Z,1.77
2018-08-31T16:05:57.021Z,1.80
2018-08-31T16:07:33.516Z,2.07
2018-08-31T16:09:10.045Z,1.80
2018-08-31T16:10:46.270Z,1.87
2018-08-31T16:12:22.198Z,2.20
2018-08-31T16:13:57.968Z,2.03
2018-08-31T16:15:33.506Z,1.97
2018-08-31T16:17:09.200Z,1.90
2018-08-31T16:18:44.607Z,1.80
2018-08-31T16:20:21.355Z,1.60
2018-08-31T16:21:57.108Z,1.87
2018-08-31T16:23:32.762Z,2.03
2018-08-31T16:25:08.316Z,2.00
2018-08-31T16:26:49.129Z,2.03
2018-08-31T16:28:25.267Z,1.83
2018-08-31T16:30:01.492Z,2.03
2018-08-31T16:31:37.751Z,1.87
2018-08-31T16:33:15.623Z,2.00
2018-08-31T16:34:51.177Z,2.13
2018-08-31T16:36:26.610Z,2.33
2018-08-31T16:38:02.374Z,2.00
2018-08-31T16:39:38.961Z,2.73
2018-08-31T16:41:14.461Z,2.17
2018-08-31T16:42:50.159Z,2.00
2018-08-31T16:44:25.939Z,3.00
2018-08-31T16:46:01.504Z,2.50
2018-08-31T16:47:37.953Z,2.00
2018-08-31T16:49:15.025Z,2.40
2018-08-31T16:50:50.527Z,2.23
2018-08-31T16:52:26.414Z,2.03
2018-08-31T16:54:03.060Z,2.03
2018-08-31T16:55:38.635Z,2.17
2018-08-31T16:57:15.233Z,3.60
2018-08-31T16:58:51.491Z,2.50
2018-08-31T17:00:27.808Z,2.30
2018-08-31T17:02:09.434Z,2.13
2018-08-31T17:03:44.962Z,2.10
2018-08-31T17:05:20.378Z,2.00
2018-08-31T17:06:58.020Z,2.30
2018-08-31T17:08:34.016Z,2.10
2018-08-31T17:10:09.824Z,2.00
2018-08-31T17:11:46.025Z,2.10
2018-08-31T17:13:22.061Z,2.10
2018-08-31T17:14:57.721Z,2.17
2018-08-31T17:16:33.164Z,2.00
2018-08-31T17:18:09.672Z,1.83
2018-08-31T17:19:45.557Z,1.70
2018-08-31T17:21:21.524Z,1.90
2018-08-31T17:22:57.364Z,1.70
2018-08-31T17:24:32.899Z,1.90
2018-08-31T17:26:12.847Z,1.70
2018-08-31T17:27:55.063Z,1.80
2018-08-31T17:29:34.954Z,2.40
2018-08-31T17:31:16.486Z,2.13
2018-08-31T17:32:57.637Z,2.27
2018-08-31T17:34:40.256Z,2.37
2018-08-31T17:36:21.369Z,2.80
2018-08-31T17:37:59.692Z,2.47
2018-08-31T17:39:35.380Z,2.40
2018-08-31T17:41:11.403Z,2.70
2018-08-31T17:42:46.928Z,2.70
2018-08-31T17:44:23.018Z,2.43
2018-08-31T17:45:58.516Z,2.47
2018-08-31T17:47:34.228Z,2.60
2018-08-31T17:49:11.567Z,2.20
2018-08-31T17:50:47.159Z,2.07
2018-08-31T17:52:22.647Z,2.30
2018-08-31T17:53:58.384Z,2.13
2018-08-31T17:55:34.788Z,1.90
2018-08-31T17:57:10.467Z,2.60
2018-08-31T17:58:45.936Z,2.30
2018-08-31T18:00:22.872Z,2.50
2018-08-31T18:01:59.603Z,2.30
2018-08-31T18:03:35.934Z,2.37
2018-08-31T18:05:13.551Z,2.43
2018-08-31T18:06:49.600Z,2.50
2018-08-31T18:08:25.119Z,3.20
2018-08-31T18:10:00.788Z,3.37
2018-08-31T18:11:36.479Z,3.73
2018-08-31T18:13:11.969Z,3.60
2018-08-31T18:14:47.486Z,2.63
2018-08-31T18:16:25.080Z,2.80
2018-08-31T18:18:02.470Z,2.60
2018-08-31T18:19:37.933Z,2.30
2018-08-31T18:21:16.774Z,2.50
2018-08-31T18:22:58.138Z,2.40
2018-08-31T18:24:33.612Z,2.40
2018-08-31T18:27:50.812Z,2.50
2018-08-31T18:29:26.290Z,2.17
2018-08-31T18:31:01.848Z,2.50
2018-08-31T18:32:40.895Z,2.37
2018-08-31T18:34:13.145Z,2.30
2018-08-31T18:35:48.633Z,2.03
2018-08-31T18:37:24.176Z,2.10
2018-08-31T18:38:59.637Z,2.00
2018-08-31T18:40:37.860Z,1.90
2018-08-31T18:42:13.398Z,2.07
2018-08-31T18:43:49.466Z,1.87
2018-08-31T18:45:25.322Z,1.83
2018-08-31T18:47:04.969Z,2.00
2018-08-31T18:48:40.979Z,2.30
2018-08-31T18:50:16.407Z,2.40
2018-08-31T18:51:51.810Z,2.17
2018-08-31T18:53:27.298Z,2.47
2018-08-31T18:55:02.802Z,2.60
2018-08-31T18:56:38.508Z,2.03
2018-08-31T18:58:16.225Z,2.47
2018-08-31T18:59:51.692Z,2.00
2018-08-31T19:01:27.244Z,2.13
2018-08-31T19:03:02.658Z,1.70
2018-08-31T19:04:38.130Z,1.83
2018-08-31T19:06:13.559Z,2.00
2018-08-31T19:07:49.097Z,1.87
2018-08-31T19:09:26.044Z,1.90
2018-08-31T19:11:01.496Z,1.93
2018-08-31T19:12:37.437Z,1.80
2018-08-31T19:14:13.961Z,1.93
2018-08-31T19:15:49.412Z,2.27
2018-08-31T19:17:25.109Z,1.80
2018-08-31T19:19:00.701Z,1.83
2018-08-31T19:20:36.469Z,1.90
2018-08-31T19:22:11.888Z,1.90
2018-08-31T19:23:48.790Z,1.83
2018-08-31T19:25:24.314Z,2.00
2018-08-31T19:27:01.049Z,1.80
2018-08-31T19:28:36.809Z,2.00
2018-08-31T19:30:12.298Z,1.93
2018-08-31T19:31:47.739Z,1.87
2018-08-31T19:33:24.772Z,2.17
2018-08-31T19:35:00.361Z,2.10
2018-08-31T19:36:35.813Z,2.20
2018-08-31T19:38:11.278Z,2.00
2018-08-31T19:39:46.779Z,1.87
2018-08-31T19:41:22.270Z,1.97
2018-08-31T19:42:58.631Z,1.73
2018-08-31T19:44:40.674Z,2.00
2018-08-31T19:46:16.969Z,1.80
2018-08-31T19:47:52.444Z,1.70
2018-08-31T19:49:28.601Z,1.77
2018-08-31T19:51:04.078Z,1.90
2018-08-31T19:52:39.823Z,1.90
2018-08-31T19:54:15.610Z,2.17
2018-08-31T19:55:51.106Z,2.47
2018-08-31T19:57:26.569Z,2.70
2018-08-31T19:59:02.014Z,2.80
2018-08-31T20:00:37.445Z,3.40
2018-08-31T20:02:13.059Z,3.33
2018-08-31T20:03:48.600Z,2.53
2018-08-31T20:05:24.055Z,2.03
2018-08-31T20:07:00.447Z,2.10
2018-08-31T20:08:36.269Z,2.20
2018-08-31T20:10:12.075Z,2.17
2018-08-31T20:11:47.618Z,2.17
2018-08-31T20:13:23.101Z,2.20
2018-08-31T20:14:58.548Z,2.20
2018-08-31T20:16:34.048Z,2.43
2018-08-31T20:18:09.519Z,1.80
2018-08-31T20:19:44.957Z,1.80
2018-08-31T20:21:20.412Z,1.97
2018-08-31T20:22:55.845Z,1.87
2018-08-31T20:24:31.668Z,2.00
2018-08-31T20:26:07.418Z,1.83
2018-08-31T20:27:44.066Z,1.93
2018-08-31T20:29:19.615Z,1.80
2018-08-31T20:30:55.492Z,2.03
2018-08-31T20:32:31.004Z,2.00
2018-08-31T20:34:06.419Z,1.90
2018-08-31T20:35:41.819Z,1.90
2018-08-31T20:37:18.129Z,2.17
2018-08-31T20:38:53.588Z,2.30
2018-08-31T20:40:28.998Z,2.13
2018-08-31T20:42:04.451Z,2.23
2018-08-31T20:43:41.963Z,1.90
2018-08-31T20:45:17.402Z,2.07
2018-08-31T20:46:53.176Z,2.30
2018-08-31T20:48:28.779Z,2.47
2018-08-31T20:50:04.215Z,1.90
2018-08-31T20:51:39.717Z,2.00
2018-08-31T20:53:15.189Z,1.97
2018-08-31T20:54:50.744Z,2.20
2018-08-31T20:56:26.309Z,2.03
2018-08-31T20:58:01.921Z,2.20
2018-08-31T20:59:37.408Z,2.60
2018-08-31T21:01:12.899Z,2.77
2018-08-31T21:02:48.341Z,3.00
2018-08-31T21:04:24.019Z,2.83
2018-08-31T21:05:59.729Z,2.87
2018-08-31T21:07:35.558Z,2.90
2018-08-31T21:09:11.967Z,2.63
2018-08-31T21:10:47.404Z,2.40
2018-08-31T21:12:22.820Z,2.50
2018-08-31T21:13:58.259Z,2.17
2018-08-31T21:15:34.602Z,2.40
2018-08-31T21:17:10.390Z,2.00
2018-08-31T21:18:45.834Z,2.20
2018-08-31T21:20:21.698Z,1.83
2018-08-31T21:21:57.886Z,1.90
2018-08-31T21:23:33.323Z,1.83
2018-08-31T21:25:08.749Z,1.90
2018-08-31T21:26:45.455Z,1.90
2018-08-31T21:28:21.781Z,2.40
2018-08-31T21:29:57.205Z,2.30
2018-08-31T21:31:33.927Z,2.33
2018-08-31T21:33:09.499Z,3.10